Time;durP1;ratioP1;P1;durP2;ratioP2;P2;SDS_P1;SDS_P2;PMS_P1;PMS_P2;Temp;Humidity;BMP_temperature;BMP_pressure;BME280_temperature;BME280_humidity;BME280_pressure;Samples;Min_cycle;Max_cycle;Signal;HPM_P1;HPM_P2
2022/08/09 00:01:48;;;;;;;3.00;2.80;;;;;;;21.34;42.97;156850.56;5013863;28;20446;-75
2022/08/09 00:04:15;;;;;;;3.80;3.50;;;;;;;21.26;43.36;156830.94;5042051;28;20459;-75
2022/08/09 00:06:43;;;;;;;3.60;3.30;;;;;;;21.14;43.72;156799.63;5030580;28;20471;-75
2022/08/09 00:09:12;;;;;;;6.10;3.60;;;;;;;21.09;43.78;156786.59;5013737;28;20542;-76
2022/08/09 00:11:39;;;;;;;4.27;3.87;;;;;;;21.02;44.45;156769.56;5031730;28;20509;-75
2022/08/09 00:14:05;;;;;;;3.60;3.30;;;;;;;20.97;44.38;156755.25;5032264;28;20478;-76
2022/08/09 00:16:32;;;;;;;5.30;3.40;;;;;;;20.98;44.64;156757.81;5016486;28;20438;-75
2022/08/09 00:18:59;;;;;;;4.30;3.80;;;;;;;20.83;44.85;156720.00;5012216;28;20454;-75
2022/08/09 00:21:26;;;;;;;4.93;3.27;;;;;;;20.79;45.03;156709.53;5018313;28;20542;-75
2022/08/09 00:23:52;;;;;;;4.20;3.27;;;;;;;20.74;45.02;156695.19;5032810;28;20434;-75
2022/08/09 00:26:20;;;;;;;3.23;3.03;;;;;;;20.69;45.05;156682.16;5050268;28;20435;-76
2022/08/09 00:28:47;;;;;;;5.03;3.57;;;;;;;20.65;45.43;156674.31;5013416;28;20483;-75
2022/08/09 00:31:14;;;;;;;3.43;3.13;;;;;;;20.62;45.64;156665.22;5047258;28;20455;-75
2022/08/09 00:33:42;;;;;;;3.43;3.13;;;;;;;20.58;45.78;156656.06;5052757;28;20470;-75
2022/08/09 00:36:10;;;;;;;3.60;3.30;;;;;;;20.54;46.23;156645.59;5035163;28;20447;-76
2022/08/09 00:38:38;;;;;;;3.57;3.33;;;;;;;20.47;45.92;156627.34;5053830;28;20498;-76
2022/08/09 00:41:05;;;;;;;3.50;3.20;;;;;;;20.46;45.78;156624.78;5032998;28;20539;-75
2022/08/09 00:43:36;;;;;;;3.60;3.30;;;;;;;20.43;45.93;156616.94;5048161;28;20444;-76
2022/08/09 00:46:04;;;;;;;3.80;3.50;;;;;;;20.41;45.85;156611.69;5015799;28;20440;-75
2022/08/09 00:48:31;;;;;;;4.10;3.70;;;;;;;20.35;46.05;156596.06;5035842;28;20498;-75
2022/08/09 00:50:58;;;;;;;3.50;3.20;;;;;;;20.28;46.37;156577.78;5034609;28;20474;-76
2022/08/09 00:53:24;;;;;;;3.57;3.20;;;;;;;20.26;46.57;156572.56;5053044;28;20826;-75
2022/08/09 00:55:51;;;;;;;4.33;3.73;;;;;;;20.23;46.78;156564.69;5052654;28;20902;-75
2022/08/09 00:58:18;;;;;;;3.57;3.27;;;;;;;20.21;46.92;156559.50;5035066;28;20681;-75
2022/08/09 01:00:47;;;;;;;3.60;3.30;;;;;;;20.21;47.24;156559.50;5046211;28;20538;-75
2022/08/09 01:03:17;;;;;;;3.47;3.27;;;;;;;20.25;47.29;156570.00;5032342;28;20459;-76
2022/08/09 01:05:50;;;;;;;3.37;3.07;;;;;;;20.23;47.36;156564.69;5030107;28;20461;-75
2022/08/09 01:08:27;;;;;;;3.70;3.37;;;;;;;20.20;47.49;156556.84;5033858;28;20481;-75
2022/08/09 01:11:12;;;;;;;3.83;3.40;;;;;;;20.23;47.35;156564.69;5034670;28;20427;-75
2022/08/09 01:13:45;;;;;;;3.80;3.50;;;;;;;20.21;47.51;156559.50;5032378;28;20498;-75
2022/08/09 01:16:13;;;;;;;4.13;3.73;;;;;;;20.24;47.72;156566.06;5035385;28;20873;-75
2022/08/09 01:18:43;;;;;;;4.63;3.97;;;;;;;20.24;47.64;156567.38;5034665;28;20458;-75
2022/08/09 01:21:19;;;;;;;4.40;4.00;;;;;;;20.16;47.88;156545.13;5051657;28;20453;-75
2022/08/09 01:23:55;;;;;;;3.60;3.40;;;;;;;20.08;47.64;156525.59;5012975;28;20445;-75
2022/08/09 01:26:49;;;;;;;4.03;3.23;;;;;;;20.05;47.96;156517.75;5028467;28;20537;-75
2022/08/09 01:29:17;;;;;;;3.87;3.50;;;;;;;20.14;48.48;156541.25;5013356;28;20464;-75
2022/08/09 01:31:44;;;;;;;4.27;3.90;;;;;;;20.13;48.69;156538.63;5001870;28;20518;-75
2022/08/09 01:34:15;;;;;;;3.37;3.13;;;;;;;20.07;47.90;156522.94;5049319;28;20487;-75
2022/08/09 01:36:43;;;;;;;3.50;3.20;;;;;;;19.98;48.08;156499.50;5052269;28;20422;-75
2022/08/09 01:39:11;;;;;;;4.80;4.13;;;;;;;19.92;48.82;156483.84;5035449;28;20443;-75
2022/08/09 01:41:40;;;;;;;4.10;3.80;;;;;;;19.94;48.68;156489.06;5031305;28;20457;-75
2022/08/09 01:44:09;;;;;;;4.13;3.80;;;;;;;19.92;49.01;156483.84;5033437;28;20807;-75
2022/08/09 01:46:38;;;;;;;4.43;3.80;;;;;;;19.88;49.43;156474.69;5033916;28;20435;-75
2022/08/09 01:49:07;;;;;;;4.53;4.13;;;;;;;19.78;49.54;156448.63;5051236;28;20529;-75
2022/08/09 01:51:34;;;;;;;4.27;3.73;;;;;;;19.75;49.39;156439.56;5030788;28;20450;-75
2022/08/09 01:54:02;;;;;;;3.43;3.20;;;;;;;19.65;49.12;156414.75;5031281;28;20454;-75
2022/08/09 01:56:30;;;;;;;3.57;3.37;;;;;;;19.59;49.46;156397.81;5014240;28;20811;-75
2022/08/09 01:59:01;;;;;;;5.80;3.83;;;;;;;19.50;49.56;156375.66;5026779;28;20543;-75
2022/08/09 02:01:30;;;;;;;4.37;3.97;;;;;;;19.43;49.77;156358.69;5030486;28;21328;-75
2022/08/09 02:03:58;;;;;;;3.43;3.20;;;;;;;19.39;49.93;156348.28;5032751;28;20842;-76
2022/08/09 02:09:06;;;;;;;4.20;3.60;;;;;;;19.29;51.03;156322.16;5013529;28;20518;-75
2022/08/09 02:11:33;;;;;;;6.67;4.20;;;;;;;19.27;50.97;156315.66;5029333;28;20463;-75
2022/08/09 02:14:02;;;;;;;4.27;3.90;;;;;;;19.25;51.27;156311.72;5014685;28;20847;-75
2022/08/09 02:16:32;;;;;;;4.00;3.70;;;;;;;19.21;51.77;156301.31;5032223;28;20479;-75
2022/08/09 02:18:59;;;;;;;4.30;3.67;;;;;;;19.16;51.59;156286.97;5016173;28;20457;-75
2022/08/09 02:21:26;;;;;;;4.43;4.03;;;;;;;19.13;51.35;156280.47;5051323;28;20493;-75
2022/08/09 02:23:54;;;;;;;4.00;3.70;;;;;;;19.10;51.59;156272.63;5051345;28;20438;-75
2022/08/09 02:26:22;;;;;;;4.23;3.87;;;;;;;19.06;51.72;156262.19;5049603;28;20441;-75
2022/08/09 02:28:52;;;;;;;3.70;3.33;;;;;;;19.01;51.82;156249.16;5029923;28;20586;-75
2022/08/09 02:31:24;;;;;;;4.90;4.60;;;;;;;18.96;51.42;156234.81;5029890;28;20821;-75
2022/08/09 02:33:54;;;;;;;4.27;3.97;;;;;;;18.87;51.65;156212.72;5040463;28;21309;-75
2022/08/09 02:36:26;;;;;;;4.43;4.03;;;;;;;18.87;52.36;156212.72;5013804;28;20447;-75
2022/08/09 02:38:55;;;;;;;3.47;3.27;;;;;;;18.85;52.41;156207.47;5004324;28;20492;-75
2022/08/09 02:41:25;;;;;;;4.00;3.70;;;;;;;18.84;52.73;156204.88;5012052;28;20855;-75
2022/08/09 02:43:54;;;;;;;4.03;3.73;;;;;;;18.84;52.21;156204.88;5029576;28;20447;-75
2022/08/09 02:46:24;;;;;;;4.43;4.00;;;;;;;18.81;51.84;156197.06;5030705;28;20507;-75
2022/08/09 02:48:51;;;;;;;3.90;3.60;;;;;;;18.80;51.82;156194.44;5035516;28;20478;-75
2022/08/09 02:51:18;;;;;;;4.20;3.80;;;;;;;18.77;51.97;156187.91;5032814;28;20431;-74
2022/08/09 02:53:50;;;;;;;5.00;3.43;;;;;;;18.72;52.22;156173.59;5051599;28;20474;-74
2022/08/09 02:56:19;;;;;;;3.83;3.53;;;;;;;18.65;52.12;156156.66;5032476;28;20542;-75
2022/08/09 02:58:46;;;;;;;3.90;3.60;;;;;;;18.64;52.25;156154.06;5022857;28;20821;-75
2022/08/09 03:01:14;;;;;;;3.73;3.30;;;;;;;18.63;52.31;156150.16;5031592;28;20450;-75
2022/08/09 03:03:43;;;;;;;4.17;3.80;;;;;;;18.61;52.02;156146.22;5013182;28;20454;-75
2022/08/09 03:06:13;;;;;;;4.20;3.77;;;;;;;18.60;52.44;156143.66;5012583;28;20432;-75
2022/08/09 03:08:41;;;;;;;6.43;3.80;;;;;;;18.56;52.61;156131.94;5027412;28;20574;-74
2022/08/09 03:11:08;;;;;;;4.37;3.97;;;;;;;18.53;52.63;156124.13;5033898;28;20439;-75
2022/08/09 03:13:35;;;;;;;3.67;3.47;;;;;;;18.50;52.69;156116.31;5034485;28;20447;-75
2022/08/09 03:16:03;;;;;;;4.10;3.70;;;;;;;18.47;53.01;156108.44;5047823;28;20915;-75
2022/08/09 03:18:30;;;;;;;4.30;4.00;;;;;;;18.43;53.19;156097.97;5032725;28;20683;-75
2022/08/09 03:21:00;;;;;;;4.33;3.87;;;;;;;18.42;53.65;156095.41;5031889;28;20449;-75
2022/08/09 03:23:27;;;;;;;4.03;3.73;;;;;;;18.40;53.53;156090.22;5049595;28;20449;-75
2022/08/09 03:25:54;;;;;;;7.40;4.13;;;;;;;18.34;53.93;156075.88;5012346;28;20764;-75
2022/08/09 03:28:21;;;;;;;4.53;4.23;;;;;;;18.31;53.69;156066.75;5046494;28;20563;-75
2022/08/09 03:30:48;;;;;;;3.70;3.40;;;;;;;18.29;54.00;156061.53;5033267;28;20430;-75
2022/08/09 03:33:16;;;;;;;3.80;3.50;;;;;;;18.27;54.25;156056.34;5032962;28;20577;-75
2022/08/09 03:35:43;;;;;;;4.23;3.93;;;;;;;18.21;54.36;156043.28;5035472;28;20534;-75
2022/08/09 03:38:11;;;;;;;4.00;3.70;;;;;;;18.21;54.93;156043.28;5032518;28;20553;-75
2022/08/09 03:40:38;;;;;;;3.97;3.67;;;;;;;18.16;55.10;156030.25;5049763;28;20439;-75
2022/08/09 03:43:05;;;;;;;4.53;4.23;;;;;;;18.15;54.97;156027.69;5050126;28;20431;-75
2022/08/09 03:45:31;;;;;;;4.93;4.43;;;;;;;18.12;55.32;156019.88;5032082;28;20442;-75
2022/08/09 03:47:58;;;;;;;4.80;4.33;;;;;;;18.09;55.28;156012.03;4997145;28;20484;-75
2022/08/09 03:50:26;;;;;;;4.30;4.00;;;;;;;18.08;55.63;156008.16;5005689;28;20501;-75
2022/08/09 03:52:55;;;;;;;4.77;4.37;;;;;;;18.09;55.51;156010.72;5016414;28;20442;-75
2022/08/09 03:55:23;;;;;;;4.40;4.00;;;;;;;18.10;55.33;156013.34;5031211;28;20852;-76
2022/08/09 03:57:49;;;;;;;4.67;4.33;;;;;;;18.05;55.54;156001.66;5033949;28;20980;-75
2022/08/09 04:00:16;;;;;;;6.30;4.20;;;;;;;18.05;55.54;156000.34;5030271;28;20933;-75
2022/08/09 04:02:44;;;;;;;4.63;4.23;;;;;;;18.02;55.99;155993.81;5030278;28;20431;-75
2022/08/09 04:05:12;;;;;;;4.73;3.97;;;;;;;18.02;56.23;155993.81;5011973;28;20452;-75
2022/08/09 04:07:39;;;;;;;7.40;4.40;;;;;;;18.02;55.97;155993.81;5040169;28;20443;-75
2022/08/09 04:10:06;;;;;;;4.50;4.10;;;;;;;18.04;55.89;155999.03;5020234;28;20450;-75
2022/08/09 04:12:43;;;;;;;4.30;3.90;;;;;;;17.99;56.20;155984.69;5054645;28;20431;-75
2022/08/09 04:15:11;;;;;;;4.50;4.17;;;;;;;18.00;56.24;155988.59;5026336;28;20451;-75
2022/08/09 04:17:38;;;;;;;4.50;4.10;;;;;;;17.99;56.11;155986.00;5015146;28;20471;-75
2022/08/09 04:20:06;;;;;;;5.03;4.40;;;;;;;17.96;56.72;155978.19;5015878;28;20427;-75
2022/08/09 04:22:33;;;;;;;5.10;4.70;;;;;;;17.97;56.76;155979.50;5016240;28;20831;-75
2022/08/09 04:25:00;;;;;;;4.70;4.30;;;;;;;17.93;55.80;155970.38;5038392;28;20454;-75
2022/08/09 04:27:27;;;;;;;5.27;4.77;;;;;;;17.95;55.78;155975.56;5036640;28;20435;-75
2022/08/09 04:29:55;;;;;;;4.40;4.10;;;;;;;17.94;56.30;155971.69;5054302;28;20473;-75
2022/08/09 04:32:22;;;;;;;4.23;3.90;;;;;;;17.92;55.11;155967.78;5053468;28;20441;-75
2022/08/09 04:34:49;;;;;;;4.00;3.70;;;;;;;17.86;55.94;155950.84;5051721;28;20937;-75
2022/08/09 04:37:15;;;;;;;4.50;4.20;;;;;;;17.89;56.38;155958.66;5053108;28;20798;-75
2022/08/09 04:39:42;;;;;;;4.87;4.47;;;;;;;17.91;56.88;155963.88;5053397;28;20960;-75
2022/08/09 04:42:09;;;;;;;4.60;4.20;;;;;;;17.92;57.45;155966.50;5023923;28;20451;-75
2022/08/09 04:44:35;;;;;;;5.53;4.27;;;;;;;17.95;57.46;155975.56;5025948;28;20490;-75
2022/08/09 04:47:04;;;;;;;5.47;4.33;;;;;;;17.93;57.76;155970.38;5053317;28;20536;-75
2022/08/09 04:49:36;;;;;;;4.17;3.87;;;;;;;17.98;57.67;155983.38;5034920;28;20486;-75
2022/08/09 04:52:04;;;;;;;4.27;3.87;;;;;;;18.01;57.91;155991.22;5034286;28;21059;-75
2022/08/09 04:54:31;;;;;;;6.40;4.90;;;;;;;18.04;58.16;155999.03;5018911;28;20447;-75
2022/08/09 04:56:58;;;;;;;5.60;5.10;;;;;;;18.07;58.15;156006.84;5024546;28;20562;-75
2022/08/09 04:59:25;;;;;;;5.67;5.17;;;;;;;18.09;57.60;156012.03;5001620;28;20472;-75
2022/08/09 05:01:52;;;;;;;5.70;5.20;;;;;;;18.11;57.45;156017.25;5008854;28;20455;-75
2022/08/09 05:04:20;;;;;;;5.17;4.77;;;;;;;18.18;58.15;156034.19;5033884;28;20458;-75
2022/08/09 05:06:46;;;;;;;6.00;5.50;;;;;;;18.31;58.82;156066.75;5032377;28;20519;-75
2022/08/09 05:09:13;;;;;;;6.20;5.60;;;;;;;18.43;59.50;156097.97;5032328;28;20563;-75
2022/08/09 05:11:40;;;;;;;6.53;5.40;;;;;;;18.74;59.74;156178.84;5015388;28;20543;-77
2022/08/09 05:14:06;;;;;;;5.97;5.50;;;;;;;19.13;58.58;156280.47;5003795;28;20483;-77
2022/08/09 05:16:34;;;;;;;6.87;5.50;;;;;;;19.61;57.57;156403.03;5013699;28;20536;-77
2022/08/09 05:19:00;;;;;;;6.40;5.00;;;;;;;19.98;56.75;156499.50;5012899;28;20444;-77
2022/08/09 05:21:29;;;;;;;5.70;5.20;;;;;;;20.45;55.94;156622.16;5000058;28;20445;-77
2022/08/09 05:23:55;;;;;;;5.07;4.77;;;;;;;20.86;54.76;156726.53;5013464;28;20455;-77
2022/08/09 05:26:22;;;;;;;5.70;5.20;;;;;;;21.10;53.47;156789.22;5030788;28;20444;-77
2022/08/09 05:28:49;;;;;;;7.27;5.40;;;;;;;21.39;53.07;156864.91;4978906;28;20475;-77
2022/08/09 05:31:16;;;;;;;5.33;5.00;;;;;;;21.68;52.72;156940.59;4993997;28;20448;-77
2022/08/09 05:33:43;;;;;;;6.30;5.10;;;;;;;21.81;51.96;156974.56;5026241;28;20848;-77
2022/08/09 05:36:09;;;;;;;6.00;5.10;;;;;;;22.10;51.05;157049.06;4995463;28;20451;-77
2022/08/09 05:38:37;;;;;;;5.57;5.00;;;;;;;22.16;50.34;157063.41;4996502;28;20424;-77
2022/08/09 05:41:05;;;;;;;5.70;5.20;;;;;;;22.23;50.33;157081.69;5021485;28;20526;-77
2022/08/09 05:43:34;;;;;;;5.47;5.07;;;;;;;22.36;49.59;157115.63;5014440;28;20521;-77
2022/08/09 05:46:01;;;;;;;5.00;4.50;;;;;;;22.51;49.88;157153.50;5013981;28;20439;-77
2022/08/09 05:48:28;;;;;;;6.17;5.47;;;;;;;22.65;49.52;157191.47;5013978;28;21008;-78
2022/08/09 05:50:54;;;;;;;4.63;4.33;;;;;;;22.71;49.34;157207.16;5027241;28;20965;-77
2022/08/09 05:53:21;;;;;;;5.73;5.33;;;;;;;22.65;49.13;157191.47;5015031;28;20458;-77
2022/08/09 05:55:49;;;;;;;5.60;5.20;;;;;;;22.82;49.45;157234.59;5004905;28;20480;-78
2022/08/09 05:58:16;;;;;;;5.57;5.07;;;;;;;22.93;48.46;157264.59;4993768;28;20476;-77
2022/08/09 06:00:43;;;;;;;5.70;5.17;;;;;;;22.90;49.17;157256.75;4994105;28;20437;-77
2022/08/09 06:03:09;;;;;;;5.50;5.10;;;;;;;23.15;48.76;157319.47;5012194;28;20445;-77
2022/08/09 06:05:36;;;;;;;5.10;4.60;;;;;;;23.13;48.13;157314.28;5010176;28;20544;-82
2022/08/09 06:08:03;;;;;;;5.70;5.20;;;;;;;23.43;48.22;157392.75;5011883;28;20452;-82
2022/08/09 06:10:37;;;;;;;4.83;4.53;;;;;;;23.61;47.42;157439.81;5012804;28;20559;-82
2022/08/09 06:13:06;;;;;;;5.50;5.00;;;;;;;23.69;46.82;157459.41;5027949;28;20450;-82
2022/08/09 06:15:35;;;;;;;5.43;5.03;;;;;;;23.78;46.78;157484.22;5013386;28;20503;-82
2022/08/09 06:18:02;;;;;;;5.47;4.70;;;;;;;23.87;46.39;157507.78;5030513;28;20940;-82
2022/08/09 06:20:29;;;;;;;5.10;4.70;;;;;;;23.99;46.10;157539.13;5032376;28;20526;-82
2022/08/09 06:22:56;;;;;;;5.30;4.90;;;;;;;24.16;45.74;157583.69;5013681;28;20446;-82
2022/08/09 06:25:23;;;;;;;4.83;4.53;;;;;;;24.33;45.33;157625.53;5030535;28;20505;-82
2022/08/09 06:27:50;;;;;;;4.80;4.50;;;;;;;24.84;44.99;157758.97;5006624;28;21003;-82
2022/08/09 06:30:18;;;;;;;5.17;4.20;;;;;;;25.17;44.72;157845.34;4992966;28;20564;-82
2022/08/09 06:32:45;;;;;;;5.10;4.70;;;;;;;25.18;44.22;157846.63;5030730;28;20466;-78
2022/08/09 06:35:12;;;;;;;4.33;4.03;;;;;;;25.46;44.14;157918.63;4999340;28;20444;-79
2022/08/09 06:37:39;;;;;;;4.67;4.27;;;;;;;25.32;44.33;157884.59;4995412;28;20474;-79
2022/08/09 06:40:07;;;;;;;5.13;4.73;;;;;;;25.15;44.25;157840.09;5031169;28;20433;-79
2022/08/09 06:42:33;;;;;;;5.17;4.20;;;;;;;25.17;44.93;157845.34;5014309;28;20532;-79
2022/08/09 06:45:00;;;;;;;5.03;4.50;;;;;;;25.59;44.09;157952.69;5012141;28;20559;-82
2022/08/09 06:47:28;;;;;;;4.73;4.30;;;;;;;25.97;43.57;158052.22;5011636;28;20930;-83
2022/08/09 06:49:55;;;;;;;4.93;4.53;;;;;;;26.17;42.75;158103.31;5031257;28;20472;-83
2022/08/09 06:52:21;;;;;;;5.40;4.90;;;;;;;26.31;42.00;158141.31;5030860;28;20440;-83
2022/08/09 06:54:48;;;;;;;5.20;4.80;;;;;;;26.46;42.03;158180.56;4984048;28;20559;-78
2022/08/09 06:57:15;;;;;;;6.10;4.70;;;;;;;26.66;42.07;158230.34;4995350;28;20939;-78
2022/08/09 06:59:42;;;;;;;4.77;4.37;;;;;;;26.60;41.58;158215.94;5021534;28;21041;-78
2022/08/09 07:02:09;;;;;;;5.50;5.10;;;;;;;26.57;42.05;158209.41;5011032;28;20425;-76
2022/08/09 07:04:37;;;;;;;5.40;4.90;;;;;;;26.86;41.69;158284.09;5003912;28;21055;-76
2022/08/09 07:07:04;;;;;;;8.23;5.90;;;;;;;26.95;41.32;158306.38;5030852;28;20474;-76
2022/08/09 07:09:31;;;;;;;4.83;4.47;;;;;;;27.26;40.80;158387.59;5031376;28;20579;-76
2022/08/09 07:11:58;;;;;;;5.40;5.00;;;;;;;27.46;40.04;158440.06;5018783;28;20452;-76
2022/08/09 07:14:24;;;;;;;5.33;4.93;;;;;;;27.45;40.03;158436.16;5009940;28;20519;-76
2022/08/09 07:16:51;;;;;;;4.60;4.30;;;;;;;27.26;39.92;158387.59;5010885;28;20451;-76
2022/08/09 07:19:18;;;;;;;4.93;4.60;;;;;;;27.40;39.35;158424.38;4993934;28;20551;-77
2022/08/09 07:21:46;;;;;;;4.63;4.33;;;;;;;27.46;39.53;158440.06;5013598;28;20478;-77
2022/08/09 07:24:13;;;;;;;4.93;4.50;;;;;;;27.29;39.77;158394.16;5013060;28;20546;-76
2022/08/09 07:26:40;;;;;;;4.87;4.57;;;;;;;27.73;39.46;158509.53;4977181;28;20908;-76
2022/08/09 07:29:06;;;;;;;5.17;4.77;;;;;;;27.65;39.09;158489.88;5010605;28;21041;-77
2022/08/09 07:31:35;;;;;;;5.60;4.87;;;;;;;27.53;38.82;158457.13;5025130;28;20541;-77
2022/08/09 07:34:02;;;;;;;5.00;4.63;;;;;;;27.26;39.69;158386.28;5024860;28;20547;-77
2022/08/09 07:36:31;;;;;;;5.20;4.80;;;;;;;27.21;39.34;158374.50;5019901;28;20893;-77
2022/08/09 07:38:59;;;;;;;5.07;4.67;;;;;;;27.20;39.76;158371.88;4992695;28;20515;-77
2022/08/09 07:41:26;;;;;;;5.47;5.00;;;;;;;27.58;39.43;158471.53;4994749;28;20451;-77
2022/08/09 07:43:53;;;;;;;4.73;4.33;;;;;;;27.76;39.08;158517.41;4997907;28;20459;-77
2022/08/09 07:46:20;;;;;;;5.43;4.93;;;;;;;27.85;38.75;158541.00;4993835;28;20521;-77
2022/08/09 07:48:49;;;;;;;5.67;5.27;;;;;;;27.51;38.39;158451.88;5015431;28;20424;-77
2022/08/09 07:51:16;;;;;;;4.80;4.40;;;;;;;27.51;39.13;158453.16;4996621;28;20499;-77
2022/08/09 07:53:43;;;;;;;6.27;5.13;;;;;;;27.68;38.23;158497.75;4995427;28;20440;-77
2022/08/09 07:56:11;;;;;;;5.13;4.73;;;;;;;27.91;38.32;158556.69;5016840;28;20446;-77
2022/08/09 07:58:38;;;;;;;5.10;4.70;;;;;;;28.19;38.15;158630.19;4994006;28;20880;-77
2022/08/09 08:01:05;;;;;;;5.37;4.97;;;;;;;28.36;37.80;158673.44;4997035;28;20443;-77
2022/08/09 08:03:32;;;;;;;4.70;4.30;;;;;;;28.25;36.50;158644.63;5012585;28;20562;-77
2022/08/09 08:05:59;;;;;;;4.90;4.50;;;;;;;27.91;37.28;158555.38;5024549;28;20530;-77
2022/08/09 08:08:26;;;;;;;4.77;4.37;;;;;;;27.47;37.25;158442.69;5016018;28;20499;-77
2022/08/09 08:10:53;;;;;;;4.27;3.87;;;;;;;27.25;38.54;158383.66;5010922;28;20471;-77
2022/08/09 08:13:21;;;;;;;4.60;4.20;;;;;;;27.90;38.57;158554.13;4994702;28;20452;-77
2022/08/09 08:15:47;;;;;;;4.50;4.20;;;;;;;27.87;37.42;158544.91;5013907;28;20469;-77
2022/08/09 08:18:14;;;;;;;4.10;3.80;;;;;;;28.09;36.80;158602.66;4996149;28;20539;-77
2022/08/09 08:20:41;;;;;;;4.07;3.80;;;;;;;28.28;36.10;158653.75;5012764;28;20460;-77
2022/08/09 08:23:08;;;;;;;4.47;4.07;;;;;;;28.29;36.08;158655.09;4999899;28;20498;-77
2022/08/09 08:25:35;;;;;;;4.47;4.17;;;;;;;28.22;36.30;158636.75;5016641;28;20436;-77
2022/08/09 08:28:02;;;;;;;4.03;3.73;;;;;;;28.32;36.34;158662.97;5028074;28;20588;-77
2022/08/09 08:30:31;;;;;;;4.30;4.00;;;;;;;27.82;36.73;158531.81;5014787;28;20491;-77
2022/08/09 08:32:57;;;;;;;9.00;5.03;;;;;;;28.11;36.65;158609.22;4995172;28;20503;-77
2022/08/09 08:35:24;;;;;;;4.57;4.27;;;;;;;28.35;36.81;158670.84;4995764;28;20939;-77
2022/08/09 08:37:51;;;;;;;4.53;4.13;;;;;;;28.32;36.81;158664.28;4997055;28;20478;-77
2022/08/09 08:40:18;;;;;;;4.40;4.10;;;;;;;28.23;36.95;158639.34;5014656;28;21174;-77
2022/08/09 08:42:45;;;;;;;5.40;5.00;;;;;;;28.19;36.80;158628.88;5013407;28;20542;-77
2022/08/09 08:45:12;;;;;;;4.93;4.57;;;;;;;28.69;36.38;158760.06;5030047;28;20858;-77
2022/08/09 08:47:41;;;;;;;4.93;4.63;;;;;;;28.72;35.74;158767.94;5014831;28;20930;-77
2022/08/09 08:50:08;;;;;;;4.30;4.00;;;;;;;28.39;36.17;158682.63;5030613;28;20590;-77
2022/08/09 08:52:35;;;;;;;4.43;4.03;;;;;;;28.33;36.86;158665.56;5007076;28;20472;-77
2022/08/09 08:55:04;;;;;;;4.30;3.90;;;;;;;28.57;36.19;158728.50;4995046;28;20447;-77
2022/08/09 08:57:31;;;;;;;5.20;4.80;;;;;;;28.20;37.20;158631.47;5027404;28;20440;-77
2022/08/09 08:59:58;;;;;;;5.13;4.73;;;;;;;28.42;36.50;158687.84;5026869;28;20488;-77
2022/08/09 09:02:27;;;;;;;5.50;5.10;;;;;;;28.54;36.17;158720.63;5031143;28;20448;-77
2022/08/09 09:04:56;;;;;;;4.60;4.30;;;;;;;28.51;36.43;158712.81;5044000;28;20453;-77
2022/08/09 09:07:24;;;;;;;4.53;4.23;;;;;;;28.46;36.31;158699.69;5079530;23;20561;-81
2022/08/09 09:09:53;;;;;;;5.10;4.70;;;;;;;29.20;35.96;158891.22;5035540;28;20502;-81
2022/08/09 09:12:22;;;;;;;4.90;4.50;;;;;;;29.14;35.78;158875.47;5052882;28;20478;-81
2022/08/09 09:14:49;;;;;;;4.57;4.27;;;;;;;29.11;35.08;158867.59;5050944;28;20434;-80
2022/08/09 09:17:16;;;;;;;4.80;4.50;;;;;;;29.04;35.03;158849.25;5054065;28;20448;-80
2022/08/09 09:19:44;;;;;;;4.10;3.80;;;;;;;28.71;35.47;158765.28;5070359;28;20446;-81
2022/08/09 09:22:13;;;;;;;4.03;3.73;;;;;;;28.63;36.69;158744.31;5069668;28;20442;-80
2022/08/09 09:24:41;;;;;;;4.27;3.87;;;;;;;28.44;36.19;158694.41;5070926;28;20824;-80
2022/08/09 09:27:13;;;;;;;4.90;4.50;;;;;;;28.65;35.80;158749.53;5069383;28;20450;-78
2022/08/09 09:29:44;;;;;;;5.67;4.60;;;;;;;28.93;34.90;158823.03;5072302;28;20820;-77
2022/08/09 09:32:11;;;;;;;5.00;4.60;;;;;;;28.66;35.11;158750.84;5035428;28;20461;-77
2022/08/09 09:34:41;;;;;;;4.53;4.23;;;;;;;28.50;36.53;158708.84;5049150;28;20449;-77
2022/08/09 09:37:28;;;;;;;6.13;5.23;;;;;;;27.71;37.50;158505.59;5034328;28;20811;-77
2022/08/09 09:40:14;;;;;;;5.77;5.30;;;;;;;27.30;38.20;158396.78;5031600;28;20437;-77
2022/08/09 09:42:42;;;;;;;4.50;4.20;;;;;;;27.35;37.46;158411.16;5038060;28;20491;-77
2022/08/09 09:45:10;;;;;;;5.33;4.87;;;;;;;27.40;36.45;158423.03;5038200;28;20924;-77
2022/08/09 09:47:57;;;;;;;4.70;4.30;;;;;;;27.81;36.65;158530.50;5034338;28;20501;-81
2022/08/09 09:50:41;;;;;;;6.03;4.77;;;;;;;27.94;35.03;158564.56;5052655;28;20569;-81
2022/08/09 09:53:18;;;;;;;4.23;3.93;;;;;;;27.66;34.91;158492.50;5037603;28;20430;-81
2022/08/09 09:55:57;;;;;;;4.50;4.20;;;;;;;27.08;35.55;158341.75;5071717;28;20798;-81
2022/08/09 09:58:46;;;;;;;4.20;3.80;;;;;;;27.13;35.61;158353.53;5067597;23;20831;-81
2022/08/09 10:01:20;;;;;;;4.27;3.97;;;;;;;26.99;36.36;158318.16;5088575;22;20482;-80
2022/08/09 10:03:48;;;;;;;4.27;3.97;;;;;;;26.94;36.29;158303.75;5007196;28;20804;-81
2022/08/09 10:06:16;;;;;;;3.90;3.60;;;;;;;27.03;35.84;158327.34;4992943;28;20511;-81
2022/08/09 10:08:47;;;;;;;5.30;4.20;;;;;;;27.24;35.29;158381.06;4994386;28;20547;-81
2022/08/09 10:11:19;;;;;;;6.13;3.97;;;;;;;27.20;35.76;158371.88;5003591;28;20515;-81
2022/08/09 10:13:46;;;;;;;4.30;3.90;;;;;;;27.76;35.64;158518.72;5003612;28;20548;-81
2022/08/09 10:16:15;;;;;;;11.20;4.70;;;;;;;27.94;35.46;158564.56;4991382;28;20489;-81
2022/08/09 10:18:50;;;;;;;4.83;4.10;;;;;;;28.06;35.29;158594.78;4992280;28;20458;-81
2022/08/09 10:21:17;;;;;;;4.60;4.20;;;;;;;28.21;35.30;158634.09;4993452;28;20440;-81
2022/08/09 10:23:45;;;;;;;3.77;3.47;;;;;;;28.35;34.81;158670.84;4994862;28;20484;-81
2022/08/09 10:26:13;;;;;;;4.10;3.80;;;;;;;28.21;34.29;158634.09;5007730;28;20455;-81
2022/08/09 10:28:41;;;;;;;4.00;3.70;;;;;;;27.85;34.32;158539.69;5025281;28;20993;-81
2022/08/09 10:31:08;;;;;;;3.60;3.40;;;;;;;27.59;34.79;158474.13;4991686;28;20964;-81
2022/08/09 10:33:35;;;;;;;4.07;3.77;;;;;;;27.37;34.73;158415.13;4984579;28;20522;-81
2022/08/09 10:36:02;;;;;;;4.23;3.93;;;;;;;27.00;34.57;158319.47;4997278;28;20887;-81
2022/08/09 10:38:29;;;;;;;3.93;3.53;;;;;;;27.31;34.45;158399.38;5004649;28;20940;-81
2022/08/09 10:40:57;;;;;;;3.67;3.47;;;;;;;27.32;34.43;158403.34;4990947;28;20437;-80
2022/08/09 10:43:24;;;;;;;4.10;3.80;;;;;;;27.54;35.26;158461.03;4975772;28;20441;-80
2022/08/09 10:45:51;;;;;;;4.40;4.00;;;;;;;27.43;34.75;158432.19;5002648;28;20556;-80
2022/08/09 10:48:24;;;;;;;4.30;4.00;;;;;;;27.40;34.17;158424.38;5008852;28;20468;-80
2022/08/09 10:51:13;;;;;;;4.60;4.20;;;;;;;27.54;34.58;158459.69;4993630;28;20475;-80
2022/08/09 10:53:51;;;;;;;4.10;3.80;;;;;;;27.53;35.36;158458.44;5023645;28;20451;-80
2022/08/09 10:56:23;;;;;;;3.83;3.53;;;;;;;27.39;34.49;158420.34;4998242;28;20503;-81
2022/08/09 10:58:50;;;;;;;4.73;4.33;;;;;;;27.09;35.07;158344.34;4973800;28;20488;-81
2022/08/09 11:01:41;;;;;;;4.30;4.00;;;;;;;27.06;35.01;158335.16;4973204;28;20544;-80
2022/08/09 11:04:19;;;;;;;6.80;4.00;;;;;;;26.98;34.65;158314.25;4999280;28;20447;-80
2022/08/09 11:06:48;;;;;;;4.30;3.90;;;;;;;27.29;34.52;158394.16;5031563;28;20864;-80
2022/08/09 11:09:17;;;;;;;4.30;4.00;;;;;;;27.50;34.44;158449.25;4995036;28;20443;-80
2022/08/09 11:12:10;;;;;;;4.23;3.90;;;;;;;27.28;34.18;158392.84;4996740;28;20887;-80
2022/08/09 11:14:40;;;;;;;5.70;3.70;;;;;;;27.16;33.46;158362.69;4991414;28;20482;-80
2022/08/09 11:17:51;;;;;;;3.70;3.40;;;;;;;27.12;34.56;158352.22;4973364;28;20437;-81
2022/08/09 11:20:21;;;;;;;5.77;3.90;;;;;;;27.33;33.67;158405.94;4977131;28;20797;-80
2022/08/09 11:22:59;;;;;;;3.90;3.60;;;;;;;27.41;33.29;158425.63;5008664;28;20448;-80
2022/08/09 11:25:44;;;;;;;5.50;3.60;;;;;;;27.22;33.26;158377.09;5013654;28;20439;-80
2022/08/09 11:28:32;;;;;;;3.90;3.60;;;;;;;27.08;33.08;158340.44;5031280;28;20452;-81
2022/08/09 11:31:01;;;;;;;4.70;3.30;;;;;;;27.13;33.30;158354.88;5006615;28;20576;-81
2022/08/09 11:33:37;;;;;;;3.80;3.40;;;;;;;27.01;32.73;158322.06;5007402;28;20453;-81
2022/08/09 11:36:04;;;;;;;2.90;2.70;;;;;;;27.11;33.04;158349.59;5002147;28;20448;-80